createdAt,value
2022-08-14T00:13:24.619Z,17.8
2022-08-14T00:27:24.617Z,18.2
2022-08-14T00:41:24.614Z,17.8
2022-08-14T00:55:24.614Z,17.7
2022-08-14T01:09:24.626Z,17.4
2022-08-14T01:23:24.662Z,17.2
2022-08-14T01:37:24.656Z,17.3
2022-08-14T01:51:24.637Z,17.1
2022-08-14T02:05:24.620Z,16.9
2022-08-14T02:19:24.641Z,16.6
2022-08-14T02:33:24.635Z,16.6
2022-08-14T02:47:24.636Z,16.4
2022-08-14T03:01:26.155Z,16.6
2022-08-14T03:15:24.668Z,16.3
2022-08-14T03:29:24.692Z,16.2
2022-08-14T03:43:24.694Z,15.8
2022-08-14T03:57:24.677Z,15.7
2022-08-14T04:12:26.334Z,16.0
2022-08-14T04:27:24.673Z,16.1
2022-08-14T04:42:24.720Z,16.1
2022-08-14T04:57:24.721Z,16.3
2022-08-14T05:13:11.457Z,16.7
2022-08-14T05:27:24.764Z,17.2
2022-08-14T05:42:26.837Z,18.1
2022-08-14T05:57:24.761Z,18.7
2022-08-14T06:12:31.762Z,19.4
2022-08-14T06:27:25.022Z,20.3
2022-08-14T06:42:32.748Z,23.8
2022-08-14T06:57:24.952Z,26.0
2022-08-14T07:12:35.134Z,26.7
2022-08-14T07:27:24.982Z,26.9
2022-08-14T07:42:24.974Z,26.3
2022-08-14T07:57:25.234Z,26.5
2022-08-14T08:12:29.701Z,27.8
2022-08-14T08:27:25.072Z,28.3
2022-08-14T08:42:31.313Z,28.9
2022-08-14T08:57:25.029Z,29.5
2022-08-14T09:12:25.046Z,29.6
2022-08-14T09:27:25.065Z,29.8
2022-08-14T09:42:32.747Z,30.6
2022-08-14T09:58:25.087Z,30.5
2022-08-14T10:14:29.633Z,30.9
2022-08-14T10:30:25.464Z,31.8
2022-08-14T10:47:38.199Z,32.0
2022-08-14T11:01:25.218Z,32.3
2022-08-14T11:16:25.252Z,32.3
2022-08-14T11:32:25.250Z,32.0
2022-08-14T11:49:03.316Z,32.1
2022-08-14T12:04:32.913Z,32.8
2022-08-14T12:19:25.266Z,33.5
2022-08-14T12:35:25.256Z,34.4
2022-08-14T12:50:25.249Z,33.3
2022-08-14T13:05:25.312Z,33.5
2022-08-14T13:20:26.656Z,33.5
2022-08-14T13:35:25.287Z,33.4
2022-08-14T13:50:25.294Z,33.4
2022-08-14T14:05:25.314Z,33.4
2022-08-14T14:20:34.727Z,33.6
2022-08-14T14:35:30.117Z,33.2
2022-08-14T14:50:25.306Z,32.7
2022-08-14T15:05:28.278Z,31.7
2022-08-14T15:20:30.036Z,31.3
2022-08-14T15:35:25.682Z,31.6
2022-08-14T15:50:25.360Z,31.7
2022-08-14T16:05:25.654Z,32.2
2022-08-14T16:20:41.299Z,32.1
2022-08-14T16:35:26.282Z,31.7
2022-08-14T16:50:40.179Z,30.8
2022-08-14T17:05:25.379Z,30.0
2022-08-14T17:20:40.045Z,29.4
2022-08-14T17:35:25.446Z,28.0
2022-08-14T17:50:55.054Z,27.3
2022-08-14T18:06:06.660Z,26.7
2022-08-14T18:21:25.111Z,26.1
2022-08-14T18:36:46.304Z,25.1
2022-08-14T18:51:25.435Z,24.3
2022-08-14T19:05:25.471Z,23.9
2022-08-14T19:19:25.480Z,23.6
2022-08-14T19:33:25.455Z,23.2
2022-08-14T19:47:25.484Z,22.9
2022-08-14T20:01:25.575Z,22.5
2022-08-14T20:15:25.747Z,22.0
2022-08-14T20:29:25.609Z,21.7
2022-08-14T20:43:25.628Z,22.5
2022-08-14T20:57:25.636Z,22.4
2022-08-14T21:11:25.606Z,22.4
2022-08-14T21:25:25.812Z,22.1
2022-08-14T21:39:25.857Z,21.7
2022-08-14T21:53:25.819Z,21.8
2022-08-14T22:07:29.181Z,21.7
2022-08-14T22:21:25.798Z,21.6
2022-08-14T22:35:25.909Z,21.6
2022-08-14T22:50:29.970Z,21.4
2022-08-14T23:03:25.922Z,21.3
2022-08-14T23:17:25.885Z,21.0
2022-08-14T23:31:33.555Z,21.0
2022-08-14T23:45:27.326Z,20.7
2022-08-14T23:59:25.896Z,20.7
